createdAt,value
2023-01-04T00:01:31.180Z,101828.38
2023-01-04T00:03:59.018Z,101821.69
2023-01-04T00:06:36.176Z,101825.56
2023-01-04T00:09:08.832Z,101822.69
2023-01-04T00:11:38.380Z,101820.34
2023-01-04T00:14:08.582Z,101818.34
2023-01-04T00:16:36.312Z,101815.56
2023-01-04T00:19:04.058Z,101825.38
2023-01-04T00:21:33.342Z,101820.69
2023-01-04T00:24:02.377Z,101812.75
2023-01-04T00:26:32.614Z,101815.03
2023-01-04T00:29:02.349Z,101813.78
2023-01-04T00:31:31.617Z,101812.09
2023-01-04T00:34:01.460Z,101812.31
2023-01-04T00:36:29.786Z,101802.97
2023-01-04T00:39:09.720Z,101797.50
2023-01-04T00:44:26.514Z,101779.78
2023-01-04T00:46:55.772Z,101795.03
2023-01-04T00:49:23.421Z,101784.56
2023-01-04T00:51:51.139Z,101794.31
2023-01-04T00:54:19.943Z,101782.41
2023-01-04T00:56:47.929Z,101776.28
2023-01-04T00:59:18.132Z,101779.31
2023-01-04T01:01:46.524Z,101774.44
2023-01-04T01:04:17.376Z,101763.22
2023-01-04T01:06:45.547Z,101776.41
2023-01-04T01:09:13.399Z,101770.94
2023-01-04T01:11:42.101Z,101774.72
2023-01-04T01:14:14.749Z,101772.63
2023-01-04T01:16:54.762Z,101764.88
2023-01-04T01:19:25.699Z,101769.97
2023-01-04T01:21:53.401Z,101765.63
2023-01-04T01:24:21.443Z,101758.13
2023-01-04T01:26:49.234Z,101757.53
2023-01-04T01:29:16.923Z,101762.41
2023-01-04T01:31:44.852Z,101761.56
2023-01-04T01:34:12.579Z,101765.63
2023-01-04T01:36:41.678Z,101761.56
2023-01-04T01:39:09.415Z,101756.63
2023-01-04T01:41:37.516Z,101754.41
2023-01-04T01:44:07.956Z,101758.09
2023-01-04T01:46:39.994Z,101756.06
2023-01-04T01:49:15.627Z,101732.94
2023-01-04T01:51:45.892Z,101739.41
2023-01-04T01:54:18.620Z,101725.25
2023-01-04T01:56:49.105Z,101720.00
2023-01-04T01:59:17.875Z,101722.72
2023-01-04T02:01:46.224Z,101725.47
2023-01-04T02:04:16.526Z,101715.28
2023-01-04T02:06:50.358Z,101722.94
2023-01-04T02:09:18.956Z,101714.69
2023-01-04T02:11:46.622Z,101712.13
2023-01-04T02:14:28.095Z,101712.38
2023-01-04T02:17:06.354Z,101704.22
2023-01-04T02:20:06.301Z,101709.16
2023-01-04T02:22:59.482Z,101695.75
2023-01-04T02:26:04.134Z,101698.59
2023-01-04T02:28:48.239Z,101686.09
2023-01-04T02:31:31.023Z,101685.25
2023-01-04T02:34:06.800Z,101693.88
2023-01-04T02:36:41.978Z,101709.94
2023-01-04T02:39:19.433Z,101698.22
2023-01-04T02:41:51.823Z,101693.78
2023-01-04T02:44:41.300Z,101697.34
2023-01-04T02:47:13.920Z,101690.63
2023-01-04T02:50:04.232Z,101678.63
2023-01-04T02:52:32.760Z,101675.25
2023-01-04T02:55:08.038Z,101670.50
2023-01-04T02:57:46.850Z,101666.59
2023-01-04T03:00:30.685Z,101666.69
2023-01-04T03:03:28.813Z,101650.66
2023-01-04T03:06:18.702Z,101651.53
2023-01-04T03:08:59.078Z,101650.16
2023-01-04T03:11:52.928Z,101644.44
2023-01-04T03:14:30.931Z,101634.16
2023-01-04T03:17:03.209Z,101630.75
2023-01-04T03:19:50.293Z,101626.22
2023-01-04T03:22:38.653Z,101631.94
2023-01-04T03:25:27.572Z,101626.47
2023-01-04T03:28:14.476Z,101622.88
2023-01-04T03:31:09.452Z,101611.28
2023-01-04T03:33:55.087Z,101612.47
2023-01-04T03:36:50.147Z,101616.47
2023-01-04T03:39:44.889Z,101607.03
2023-01-04T03:42:36.470Z,101603.88
2023-01-04T03:45:32.097Z,101605.56
2023-01-04T03:48:26.140Z,101605.03
2023-01-04T03:51:00.403Z,101599.88
2023-01-04T03:53:30.859Z,101596.94
2023-01-04T03:55:59.980Z,101597.03
2023-01-04T03:58:28.249Z,101600.09
2023-01-04T04:01:03.943Z,101591.75
2023-01-04T04:03:50.023Z,101593.66
2023-01-04T04:06:35.856Z,101591.19
2023-01-04T04:09:05.649Z,101589.72
2023-01-04T04:11:33.708Z,101588.25
2023-01-04T04:14:01.443Z,101590.56
2023-01-04T04:16:29.754Z,101584.66
2023-01-04T04:18:59.146Z,101588.69
2023-01-04T04:21:28.463Z,101584.88
2023-01-04T04:23:56.666Z,101572.00
2023-01-04T04:26:25.907Z,101557.28
2023-01-04T04:28:53.631Z,101563.94
2023-01-04T04:31:21.381Z,101561.81
2023-01-04T04:33:49.101Z,101577.06
2023-01-04T04:36:16.837Z,101563.75
2023-01-04T04:38:44.536Z,101563.75
2023-01-04T04:41:32.181Z,101566.50
2023-01-04T04:44:01.257Z,101550.22
2023-01-04T04:46:29.121Z,101558.47
2023-01-04T04:48:57.118Z,101560.75
2023-01-04T04:51:24.809Z,101554.00
2023-01-04T04:53:52.495Z,101553.34
2023-01-04T04:56:20.227Z,101545.94
2023-01-04T04:58:48.311Z,101550.81
2023-01-04T05:01:17.617Z,101559.91
2023-01-04T05:03:45.582Z,101555.13
2023-01-04T05:06:13.408Z,101560.13
2023-01-04T05:08:41.081Z,101548.06
2023-01-04T05:11:10.557Z,101549.00
2023-01-04T05:13:37.409Z,101538.97
2023-01-04T05:16:07.181Z,101542.97
2023-01-04T05:18:36.841Z,101536.00
2023-01-04T05:21:04.678Z,101534.06
2023-01-04T05:23:32.342Z,101536.00
2023-01-04T05:26:02.163Z,101535.88
2023-01-04T05:28:29.939Z,101535.53
2023-01-04T05:30:57.173Z,101531.81
2023-01-04T05:33:26.387Z,101522.22
2023-01-04T05:35:56.711Z,101520.78
2023-01-04T05:38:25.407Z,101524.25
2023-01-04T05:40:53.718Z,101523.66
2023-01-04T05:43:23.273Z,101507.06
2023-01-04T05:45:52.597Z,101498.91
2023-01-04T05:48:21.278Z,101496.09
2023-01-04T05:50:49.465Z,101488.03
2023-01-04T05:53:18.953Z,101489.72
2023-01-04T05:55:46.972Z,101480.44
2023-01-04T05:58:14.642Z,101486.81
2023-01-04T06:00:42.338Z,101487.31
2023-01-04T06:03:10.168Z,101480.06
2023-01-04T06:05:38.022Z,101483.22
2023-01-04T06:08:06.217Z,101483.22
2023-01-04T06:10:35.382Z,101477.75
2023-01-04T06:13:03.071Z,101477.75
2023-01-04T06:15:30.735Z,101472.25
2023-01-04T06:17:58.387Z,101476.88
2023-01-04T06:20:26.124Z,101478.56
2023-01-04T06:22:53.788Z,101476.59
2023-01-04T06:25:21.488Z,101481.97
2023-01-04T06:27:50.509Z,101486.81
2023-01-04T06:30:18.286Z,101494.09
2023-01-04T06:32:46.063Z,101493.81
2023-01-04T06:35:13.720Z,101500.78
2023-01-04T06:37:41.509Z,101484.69
2023-01-04T06:40:10.784Z,101477.31
2023-01-04T06:42:47.228Z,101488.84
2023-01-04T06:45:16.987Z,101473.84
2023-01-04T06:47:44.965Z,101466.41
2023-01-04T06:50:13.141Z,101460.28
2023-01-04T06:52:41.203Z,101448.88
2023-01-04T06:55:10.210Z,101438.56
2023-01-04T06:57:38.104Z,101428.19
2023-01-04T07:00:07.438Z,101423.34
2023-01-04T07:02:37.050Z,101406.75
2023-01-04T07:05:05.202Z,101423.34
2023-01-04T07:07:33.599Z,101446.47
2023-01-04T07:10:07.062Z,101439.09
2023-01-04T07:12:38.055Z,101451.53
2023-01-04T07:15:37.330Z,101458.00
2023-01-04T07:17:55.832Z,101457.84
2023-01-04T07:20:23.518Z,101447.94
2023-01-04T07:22:51.254Z,101453.50
2023-01-04T07:25:19.152Z,101455.94
2023-01-04T07:27:51.355Z,101438.66
2023-01-04T07:30:19.141Z,101435.75
2023-01-04T07:32:46.828Z,101425.44
2023-01-04T07:35:16.196Z,101420.03
2023-01-04T07:37:44.649Z,101409.03
2023-01-04T07:40:13.004Z,101406.91
2023-01-04T07:42:40.692Z,101398.97
2023-01-04T07:45:09.237Z,101397.28
2023-01-04T07:47:37.026Z,101385.03
2023-01-04T07:50:06.096Z,101373.66
2023-01-04T07:52:35.132Z,101372.47
2023-01-04T07:55:02.860Z,101378.38
2023-01-04T07:57:30.578Z,101375.84
2023-01-04T07:59:58.512Z,101367.72
2023-01-04T08:02:26.331Z,101381.53
2023-01-04T08:04:54.150Z,101400.88
2023-01-04T08:07:21.908Z,101401.50
2023-01-04T08:09:50.915Z,101385.28
2023-01-04T08:12:18.638Z,101398.91
2023-01-04T08:14:46.379Z,101401.84
2023-01-04T08:17:14.052Z,101408.09
2023-01-04T08:19:41.765Z,101409.78
2023-01-04T08:22:09.535Z,101412.72
2023-01-04T08:24:37.224Z,101409.22
2023-01-04T08:27:06.660Z,101418.69
2023-01-04T08:29:35.186Z,101412.81
2023-01-04T08:32:03.290Z,101408.47
2023-01-04T08:34:37.264Z,101405.47
2023-01-04T08:37:04.972Z,101410.44
2023-01-04T08:39:35.881Z,101418.94
2023-01-04T08:42:18.011Z,101416.41
2023-01-04T08:44:55.685Z,101407.03
2023-01-04T08:47:26.556Z,101404.06
2023-01-04T08:49:54.216Z,101408.84
2023-01-04T08:52:22.085Z,101410.88
2023-01-04T08:54:50.236Z,101406.44
2023-01-04T08:57:18.099Z,101400.41
2023-01-04T08:59:45.873Z,101402.13
2023-01-04T09:02:22.522Z,101409.19
2023-01-04T09:04:50.820Z,101407.25
2023-01-04T09:07:19.097Z,101398.16
2023-01-04T09:09:46.832Z,101397.41
2023-01-04T09:12:14.584Z,101398.50
2023-01-04T09:14:42.239Z,101390.56
2023-01-04T09:17:09.916Z,101382.00
2023-01-04T09:19:38.989Z,101382.13
2023-01-04T09:22:06.740Z,101382.13
2023-01-04T09:24:35.011Z,101386.00
2023-01-04T09:27:04.656Z,101389.88
2023-01-04T09:29:32.379Z,101387.72
2023-01-04T09:32:00.371Z,101403.38
2023-01-04T09:34:28.326Z,101384.50
2023-01-04T09:36:57.460Z,101390.84
2023-01-04T09:39:40.065Z,101372.59
2023-01-04T09:42:22.197Z,101381.97
2023-01-04T09:47:46.578Z,101383.06
2023-01-04T09:50:18.602Z,101392.69
2023-01-04T09:52:57.320Z,101384.88
2023-01-04T09:55:38.802Z,101385.38
2023-01-04T09:58:19.067Z,101381.06
2023-01-04T10:00:49.741Z,101388.53
2023-01-04T10:03:23.730Z,101376.03
2023-01-04T10:05:54.065Z,101374.78
2023-01-04T10:08:24.161Z,101375.78
2023-01-04T10:11:05.452Z,101365.41
2023-01-04T10:13:53.106Z,101369.75
2023-01-04T10:17:01.782Z,101364.59
2023-01-04T10:22:23.436Z,101365.03
2023-01-04T10:25:01.430Z,101354.34
2023-01-04T10:27:42.915Z,101351.34
2023-01-04T10:30:30.670Z,101351.59
2023-01-04T10:33:11.580Z,101352.69
2023-01-04T10:35:40.864Z,101344.97
2023-01-04T10:38:16.489Z,101347.00
2023-01-04T10:40:48.326Z,101352.44
2023-01-04T10:43:26.855Z,101348.06
2023-01-04T10:46:01.305Z,101342.28
2023-01-04T10:48:38.573Z,101343.56
2023-01-04T10:51:10.630Z,101340.09
2023-01-04T10:53:44.694Z,101343.25
2023-01-04T10:56:25.650Z,101338.50
2023-01-04T10:58:59.935Z,101339.56
2023-01-04T11:01:32.864Z,101324.88
2023-01-04T11:04:07.144Z,101322.44
2023-01-04T11:06:41.872Z,101315.06
2023-01-04T11:09:21.110Z,101318.19
2023-01-04T11:11:56.587Z,101313.44
2023-01-04T11:14:25.690Z,101309.47
2023-01-04T11:16:59.453Z,101304.84
2023-01-04T11:19:28.460Z,101316.06
2023-01-04T11:22:00.416Z,101316.50
2023-01-04T11:24:33.210Z,101303.59
2023-01-04T11:27:07.413Z,101301.78
2023-01-04T11:29:41.688Z,101300.53
2023-01-04T11:32:18.352Z,101284.06
2023-01-04T11:34:52.615Z,101287.00
2023-01-04T11:37:42.438Z,101285.75
2023-01-04T11:40:25.438Z,101285.50
2023-01-04T11:43:13.205Z,101291.97
2023-01-04T11:45:40.975Z,101296.44
2023-01-04T11:48:16.408Z,101290.28
2023-01-04T11:50:47.230Z,101279.66
2023-01-04T11:53:26.744Z,101270.50
2023-01-04T11:56:10.968Z,101273.84
2023-01-04T11:58:40.718Z,101255.72
2023-01-04T12:01:21.458Z,101250.16
2023-01-04T12:03:49.206Z,101261.59
2023-01-04T12:06:21.780Z,101232.81
2023-01-04T12:08:49.986Z,101240.38
2023-01-04T12:11:24.213Z,101233.13
2023-01-04T12:13:53.382Z,101241.38
2023-01-04T12:16:39.673Z,101240.38
2023-01-04T12:19:07.631Z,101238.72
2023-01-04T12:21:36.658Z,101234.56
2023-01-04T12:24:07.777Z,101235.94
2023-01-04T12:26:43.018Z,101237.50
2023-01-04T12:29:35.287Z,101233.03
2023-01-04T12:32:36.645Z,101225.50
2023-01-04T12:35:04.561Z,101218.94
2023-01-04T12:37:49.698Z,101200.09
2023-01-04T12:40:55.654Z,101214.63
2023-01-04T12:43:28.384Z,101215.88
2023-01-04T12:46:59.103Z,101216.03
2023-01-04T12:49:52.664Z,101215.03
2023-01-04T12:53:02.407Z,101206.09
2023-01-04T12:55:57.977Z,101208.34
2023-01-04T12:59:26.415Z,101204.97
2023-01-04T13:02:20.363Z,101180.09
2023-01-04T13:04:59.145Z,101187.94
2023-01-04T13:07:44.451Z,101183.34
2023-01-04T13:10:22.342Z,101178.44
2023-01-04T13:13:04.315Z,101174.22
2023-01-04T13:15:46.887Z,101167.81
2023-01-04T13:18:30.861Z,101175.19
2023-01-04T13:21:01.079Z,101160.94
2023-01-04T13:23:30.958Z,101166.13
2023-01-04T13:26:39.286Z,101165.56
2023-01-04T13:29:15.514Z,101165.72
2023-01-04T13:31:48.481Z,101153.97
2023-01-04T13:34:32.849Z,101152.00
2023-01-04T13:37:08.651Z,101158.06
2023-01-04T13:39:37.761Z,101156.97
2023-01-04T13:42:13.139Z,101142.66
2023-01-04T13:47:51.385Z,101145.31
2023-01-04T13:50:29.010Z,101134.56
2023-01-04T13:53:06.235Z,101129.53
2023-01-04T13:55:36.369Z,101135.13
2023-01-04T13:58:07.620Z,101131.50
2023-01-04T14:00:44.479Z,101131.38
2023-01-04T14:03:25.624Z,101126.31
2023-01-04T14:05:58.758Z,101116.66
2023-01-04T14:08:34.641Z,101119.47
2023-01-04T14:11:02.689Z,101105.47
2023-01-04T14:13:31.809Z,101097.50
2023-01-04T14:16:07.578Z,101101.56
2023-01-04T14:18:35.325Z,101105.63
2023-01-04T14:21:03.068Z,101097.22
2023-01-04T14:23:35.424Z,101105.47
2023-01-04T14:26:03.224Z,101094.84
2023-01-04T14:28:46.989Z,101094.16
2023-01-04T14:31:34.597Z,101100.16
2023-01-04T14:34:06.969Z,101098.19
2023-01-04T14:36:43.055Z,101099.88
2023-01-04T14:39:20.400Z,101100.13
2023-01-04T14:41:57.593Z,101108.25
2023-01-04T14:44:30.744Z,101097.63
2023-01-04T14:47:00.354Z,101101.56
2023-01-04T14:49:28.645Z,101100.44
2023-01-04T14:51:58.195Z,101075.50
2023-01-04T14:54:28.527Z,101082.25
2023-01-04T14:56:58.309Z,101081.38
2023-01-04T14:59:28.711Z,101071.59
2023-01-04T15:01:57.746Z,101071.59
2023-01-04T15:04:25.989Z,101058.88
2023-01-04T15:06:55.452Z,101052.16
2023-01-04T15:09:23.561Z,101062.53
2023-01-04T15:11:51.810Z,101060.97
2023-01-04T15:14:19.815Z,101044.03
2023-01-04T15:16:49.333Z,101052.88
2023-01-04T15:19:17.228Z,101061.94
2023-01-04T15:21:44.980Z,101051.44
2023-01-04T15:24:12.744Z,101053.41
2023-01-04T15:26:40.806Z,101058.44
2023-01-04T15:29:09.802Z,101065.44
2023-01-04T15:31:47.799Z,101064.31
2023-01-04T15:34:15.590Z,101073.53
2023-01-04T15:36:43.759Z,101070.75
2023-01-04T15:39:14.132Z,101070.19
2023-01-04T15:41:59.851Z,101070.75
2023-01-04T15:44:27.853Z,101066.03
2023-01-04T15:46:59.272Z,101070.19
2023-01-04T15:49:27.514Z,101068.50
2023-01-04T15:51:55.234Z,101058.72
2023-01-04T15:54:25.648Z,101056.63
2023-01-04T15:56:53.428Z,101055.19
2023-01-04T15:59:23.333Z,101068.66
2023-01-04T16:01:51.276Z,101061.53
2023-01-04T16:04:20.789Z,101070.31
2023-01-04T16:06:48.513Z,101058.28
2023-01-04T16:09:16.583Z,101053.38
2023-01-04T16:11:58.294Z,101061.22
2023-01-04T16:14:25.993Z,101041.19
2023-01-04T16:16:53.731Z,101046.94
2023-01-04T16:19:23.069Z,101046.09
2023-01-04T16:21:50.792Z,101048.91
2023-01-04T16:24:53.252Z,101041.66
2023-01-04T16:27:06.312Z,101032.13
2023-01-04T16:29:34.104Z,101044.75
2023-01-04T16:32:01.932Z,101038.00
2023-01-04T16:34:31.273Z,101033.66
2023-01-04T16:36:59.003Z,101055.06
2023-01-04T16:39:57.091Z,101054.09
2023-01-04T16:42:14.573Z,101040.66
2023-01-04T16:44:42.255Z,101042.63
2023-01-04T16:47:11.657Z,101026.25
2023-01-04T16:49:40.854Z,101024.97
2023-01-04T16:52:10.698Z,101021.06
2023-01-04T16:54:38.453Z,101033.81
2023-01-04T16:57:08.814Z,101030.44
2023-01-04T16:59:36.539Z,101037.31
2023-01-04T17:02:04.389Z,101025.84
2023-01-04T17:04:32.208Z,101028.69
2023-01-04T17:07:01.226Z,101029.25
2023-01-04T17:09:28.899Z,101025.63
2023-01-04T17:15:00.682Z,101021.00
2023-01-04T17:17:36.319Z,101008.44
2023-01-04T17:20:06.255Z,101021.81
2023-01-04T17:22:35.651Z,101027.13
2023-01-04T17:25:04.490Z,101021.13
2023-01-04T17:27:32.169Z,101015.94
2023-01-04T17:29:59.844Z,101022.66
2023-01-04T17:32:27.519Z,101013.16
2023-01-04T17:34:57.487Z,101027.88
2023-01-04T17:37:25.226Z,101016.41
2023-01-04T17:39:54.848Z,101024.25
2023-01-04T17:42:22.967Z,101026.31
2023-01-04T17:44:51.358Z,101025.47
2023-01-04T17:47:19.308Z,101030.50
2023-01-04T17:49:49.903Z,101012.31
2023-01-04T17:52:23.263Z,101014.28
2023-01-04T17:54:55.123Z,101015.81
2023-01-04T17:57:22.815Z,101007.31
2023-01-04T17:59:50.529Z,101012.03
2023-01-04T18:02:18.478Z,101005.88
2023-01-04T18:04:46.380Z,101014.28
2023-01-04T18:07:14.083Z,101010.50
2023-01-04T18:09:41.857Z,101004.81
2023-01-04T18:12:10.965Z,101010.97
2023-01-04T18:14:38.848Z,101019.44
2023-01-04T18:17:06.752Z,101027.97
2023-01-04T18:19:34.617Z,101029.66
2023-01-04T18:22:04.339Z,101012.63
2023-01-04T18:24:37.387Z,101015.69
2023-01-04T18:27:24.290Z,101018.19
2023-01-04T18:29:56.584Z,101010.94
2023-01-04T18:32:26.064Z,101011.34
2023-01-04T18:34:53.795Z,101016.53
2023-01-04T18:37:22.219Z,101028.84
2023-01-04T18:39:50.344Z,101020.84
2023-01-04T18:42:18.366Z,101007.84
2023-01-04T18:44:49.072Z,101008.13
2023-01-04T18:47:20.770Z,101005.19
2023-01-04T18:49:50.349Z,100997.78
2023-01-04T18:52:19.076Z,100999.75
2023-01-04T18:54:48.452Z,101010.22
2023-01-04T18:57:17.025Z,101004.06
2023-01-04T18:59:44.895Z,101007.00
2023-01-04T19:02:18.020Z,100998.75
2023-01-04T19:04:49.845Z,101000.16
2023-01-04T19:07:18.241Z,101000.31
2023-01-04T19:09:46.080Z,101011.94
2023-01-04T19:12:14.022Z,100993.72
2023-01-04T19:14:42.057Z,100989.13
2023-01-04T19:17:10.182Z,100992.16
2023-01-04T19:19:38.237Z,100979.56
2023-01-04T19:22:07.799Z,100984.38
2023-01-04T19:24:35.623Z,100982.69
2023-01-04T19:27:05.239Z,100973.72
2023-01-04T19:29:36.118Z,100979.88
2023-01-04T19:32:04.488Z,100968.69
2023-01-04T19:34:32.284Z,100978.88
2023-01-04T19:37:00.843Z,100978.59
2023-01-04T19:39:30.289Z,100991.34
2023-01-04T19:41:58.147Z,100992.16
2023-01-04T19:44:26.062Z,100985.72
2023-01-04T19:46:53.931Z,100999.88
2023-01-04T19:49:21.892Z,100992.13
2023-01-04T19:51:51.738Z,101004.75
2023-01-04T19:54:24.961Z,100998.03
2023-01-04T19:56:55.171Z,100988.91
2023-01-04T19:59:24.050Z,100990.84
2023-01-04T20:01:52.516Z,101011.16
2023-01-04T20:04:20.768Z,100996.28
2023-01-04T20:06:48.545Z,101002.34
2023-01-04T20:09:24.515Z,101005.94
2023-01-04T20:11:54.220Z,101014.06
2023-01-04T20:14:22.733Z,101015.88
2023-01-04T20:16:51.165Z,101017.28
2023-01-04T20:19:19.184Z,101027.63
2023-01-04T20:21:47.045Z,101030.56
2023-01-04T20:24:14.896Z,101029.66
2023-01-04T20:26:42.876Z,101038.75
2023-01-04T20:29:12.475Z,101026.97
2023-01-04T20:31:45.615Z,101009.59
2023-01-04T20:34:14.131Z,101016.28
2023-01-04T20:36:41.977Z,101023.44
2023-01-04T20:39:09.870Z,101014.09
2023-01-04T20:41:37.775Z,101013.25
2023-01-04T20:44:04.919Z,101013.25
2023-01-04T20:46:34.425Z,101012.97
2023-01-04T20:49:02.753Z,101002.31
2023-01-04T20:51:31.389Z,101003.59
2023-01-04T20:54:00.205Z,101005.28
2023-01-04T20:56:30.273Z,100995.28
2023-01-04T20:58:58.407Z,101000.59
2023-01-04T21:01:26.363Z,100992.06
2023-01-04T21:03:56.114Z,100998.38
2023-01-04T21:06:24.841Z,101013.78
2023-01-04T21:08:54.962Z,101006.34
2023-01-04T21:11:23.571Z,101005.66
2023-01-04T21:13:52.703Z,101001.41
2023-01-04T21:16:20.668Z,101001.41
2023-01-04T21:18:48.517Z,100987.13
2023-01-04T21:21:19.313Z,100985.44
2023-01-04T21:23:50.595Z,100983.47
2023-01-04T21:26:22.461Z,100983.19
2023-01-04T21:28:50.185Z,100988.06
2023-01-04T21:31:21.207Z,100990.88
2023-01-04T21:33:49.534Z,100983.75
2023-01-04T21:36:20.533Z,100980.47
2023-01-04T21:38:50.175Z,100979.19
2023-01-04T21:41:18.064Z,100983.13
2023-01-04T21:43:46.067Z,100982.00
2023-01-04T21:46:16.350Z,100978.88
2023-01-04T21:48:44.880Z,100981.41
2023-01-04T21:51:14.564Z,100967.13
2023-01-04T21:53:43.715Z,100981.63
2023-01-04T21:56:13.568Z,100976.22
2023-01-04T21:58:41.389Z,100972.88
2023-01-04T22:01:10.137Z,100979.72
2023-01-04T22:03:38.021Z,100975.09
2023-01-04T22:06:06.538Z,100970.63
2023-01-04T22:08:34.975Z,100956.06
2023-01-04T22:11:04.722Z,100960.88
2023-01-04T22:13:32.575Z,100942.63
2023-01-04T22:16:00.685Z,100942.91
2023-01-04T22:18:28.435Z,100943.81
2023-01-04T22:21:02.792Z,100945.13
2023-01-04T22:23:31.482Z,100938.13
2023-01-04T22:25:59.990Z,100947.94
2023-01-04T22:28:36.283Z,100941.06
2023-01-04T22:31:05.838Z,100944.16
2023-01-04T22:33:34.282Z,100939.13
2023-01-04T22:36:05.459Z,100932.13
2023-01-04T22:38:35.332Z,100928.19
2023-01-04T22:41:06.989Z,100925.88
2023-01-04T22:43:36.712Z,100936.00
2023-01-04T22:46:07.066Z,100935.03
2023-01-04T22:48:35.211Z,100922.09
2023-01-04T22:51:07.039Z,100923.38
2023-01-04T22:53:34.800Z,100933.50
2023-01-04T22:56:19.052Z,100936.31
2023-01-04T22:58:53.480Z,100931.13
2023-01-04T23:01:22.845Z,100935.31
2023-01-04T23:03:51.724Z,100937.16
2023-01-04T23:06:20.332Z,100935.47
2023-01-04T23:08:48.618Z,100937.28
2023-01-04T23:11:18.916Z,100935.84
2023-01-04T23:13:46.956Z,100928.47
2023-01-04T23:16:17.865Z,100931.81
2023-01-04T23:18:46.211Z,100930.75
2023-01-04T23:21:14.604Z,100917.06
2023-01-04T23:23:42.770Z,100906.59
2023-01-04T23:26:15.041Z,100910.66
2023-01-04T23:28:43.214Z,100906.25
2023-01-04T23:31:13.496Z,100914.69
2023-01-04T23:33:42.851Z,100907.16
2023-01-04T23:36:12.908Z,100903.66
2023-01-04T23:38:41.846Z,100905.41
2023-01-04T23:41:10.645Z,100901.25
2023-01-04T23:43:40.023Z,100895.47
2023-01-04T23:48:36.821Z,100901.25
2023-01-04T23:51:06.522Z,100899.56
2023-01-04T23:53:34.485Z,100898.25
2023-01-04T23:56:04.876Z,100901.31
2023-01-04T23:58:32.826Z,100901.69
